Time;durP1;ratioP1;P1;durP2;ratioP2;P2;SDS_P1;SDS_P2;PMS_P1;PMS_P2;Temp;Humidity;BMP_temperature;BMP_pressure;BME280_temperature;BME280_humidity;BME280_pressure;Samples;Min_cycle;Max_cycle;Signal;HPM_P1;HPM_P2
2022/01/29 00:00:48;;;;;;;31.02;3.90;;;;;;;9.69;45.12;102356.44;4976704;28;97037;-73
2022/01/29 00:03:15;;;;;;;28.23;3.58;;;;;;;9.72;45.18;102343.19;4981373;28;98835;-73
2022/01/29 00:05:41;;;;;;;30.20;4.05;;;;;;;9.31;45.80;102339.94;4971481;28;98316;-73
2022/01/29 00:08:09;;;;;;;27.20;3.67;;;;;;;9.62;45.91;102335.34;4969311;28;97883;-71
2022/01/29 00:10:36;;;;;;;25.77;3.22;;;;;;;9.51;45.39;102332.78;4972693;28;96943;-74
2022/01/29 00:13:03;;;;;;;35.28;3.60;;;;;;;9.33;45.90;102330.22;4973313;28;98491;-73
2022/01/29 00:15:30;;;;;;;28.63;3.67;;;;;;;9.42;45.94;102320.53;4978851;28;99951;-73
2022/01/29 00:17:57;;;;;;;28.40;4.07;;;;;;;9.66;45.34;102319.47;4978151;28;97188;-72
2022/01/29 00:20:24;;;;;;;29.50;3.22;;;;;;;9.33;45.64;102327.59;4974195;28;97100;-72
2022/01/29 00:22:53;;;;;;;25.08;3.08;;;;;;;9.52;45.92;102327.47;4975125;28;98200;-72
2022/01/29 00:25:23;;;;;;;25.88;3.38;;;;;;;9.67;45.29;102330.91;4970370;28;98898;-72
2022/01/29 00:27:49;;;;;;;24.15;3.08;;;;;;;9.58;45.26;102310.75;4971358;28;96886;-72
2022/01/29 00:30:18;;;;;;;30.05;3.70;;;;;;;9.61;45.13;102302.81;4976628;28;97179;-72
2022/01/29 00:32:49;;;;;;;31.80;4.57;;;;;;;9.48;45.63;102307.28;4977651;28;99137;-71
2022/01/29 00:35:18;;;;;;;24.50;4.05;;;;;;;9.58;45.33;102300.22;4977633;28;101399;-72
2022/01/29 00:37:45;;;;;;;24.50;3.40;;;;;;;9.77;44.81;102291.25;4973670;28;96965;-74
2022/01/29 00:40:13;;;;;;;32.40;3.03;;;;;;;9.62;45.58;102308.97;4976148;28;97170;-73
2022/01/29 00:42:40;;;;;;;27.67;4.47;;;;;;;9.59;45.29;102310.72;4974619;28;97810;-74
2022/01/29 00:45:07;;;;;;;29.33;3.42;;;;;;;9.43;45.84;102303.81;4974116;28;98977;-74
2022/01/29 00:47:34;;;;;;;29.42;3.95;;;;;;;9.40;45.95;102302.94;4979281;28;96789;-73
2022/01/29 00:50:02;;;;;;;35.30;3.53;;;;;;;9.58;45.51;102305.47;4981982;28;96828;-73
2022/01/29 00:52:29;;;;;;;25.80;3.72;;;;;;;9.59;45.36;102292.25;4980068;28;99261;-73
2022/01/29 00:54:56;;;;;;;35.05;3.80;;;;;;;9.41;45.96;102291.50;4979599;28;98208;-72
2022/01/29 00:57:23;;;;;;;32.00;4.15;;;;;;;9.43;45.88;102282.69;4979554;28;97023;-73
2022/01/29 00:59:50;;;;;;;25.73;3.35;;;;;;;9.43;46.04;102279.19;4976083;28;96785;-72
2022/01/29 01:02:16;;;;;;;22.25;3.78;;;;;;;9.45;45.66;102272.16;4979968;28;98941;-73
2022/01/29 01:04:46;;;;;;;23.42;3.55;;;;;;;9.47;45.79;102273.88;4982375;28;98268;-73
2022/01/29 01:07:15;;;;;;;31.90;4.00;;;;;;;9.55;46.09;102263.25;4981310;28;98263;-73
2022/01/29 01:09:41;;;;;;;26.05;3.95;;;;;;;9.50;45.48;102243.97;4979889;28;96952;-72
2022/01/29 01:12:10;;;;;;;25.23;4.20;;;;;;;9.46;45.81;102250.13;4979117;28;97753;-75
2022/01/29 01:14:37;;;;;;;27.42;3.90;;;;;;;9.44;45.95;102244.00;4974949;28;101832;-74
2022/01/29 01:17:04;;;;;;;28.05;3.65;;;;;;;9.42;45.91;102237.84;4973213;28;96642;-73
2022/01/29 01:19:31;;;;;;;28.60;3.85;;;;;;;9.61;45.28;102234.19;4981072;28;96851;-73
2022/01/29 01:21:58;;;;;;;31.88;4.18;;;;;;;9.67;45.24;102233.25;4983525;28;101869;-73
2022/01/29 01:24:26;;;;;;;29.45;4.18;;;;;;;9.72;44.94;102229.69;4974701;28;97991;-73
2022/01/29 01:26:53;;;;;;;25.08;3.17;;;;;;;9.75;45.18;102218.25;4987465;28;96679;-72
2022/01/29 01:29:20;;;;;;;30.05;4.07;;;;;;;9.86;44.63;102208.44;4983884;28;96812;-73
2022/01/29 01:31:46;;;;;;;31.55;3.65;;;;;;;9.81;45.02;102190.03;4974092;28;99158;-73
2022/01/29 01:34:16;;;;;;;25.88;2.90;;;;;;;9.76;45.36;102183.91;4976338;28;97570;-73
2022/01/29 01:36:47;;;;;;;37.78;4.00;;;;;;;9.49;45.36;102186.78;4976118;28;96877;-74
2022/01/29 01:39:18;;;;;;;21.10;4.30;;;;;;;9.61;45.29;102168.22;4976952;28;96730;-73
2022/01/29 01:41:55;;;;;;;33.30;4.53;;;;;;;9.43;45.97;102177.16;4976311;28;101689;-73
2022/01/29 01:44:23;;;;;;;28.42;3.92;;;;;;;9.19;46.16;102172.94;5009472;22;99327;-79
2022/01/29 01:46:50;;;;;;;33.05;3.20;;;;;;;9.35;46.05;102180.75;5012537;27;96491;-78
2022/01/29 01:49:17;;;;;;;24.67;3.47;;;;;;;9.30;45.90;102169.34;5008692;28;96545;-77
2022/01/29 01:51:45;;;;;;;33.10;3.22;;;;;;;9.11;46.46;102153.69;4995829;28;99263;-79
2022/01/29 01:54:12;;;;;;;23.17;2.80;;;;;;;9.17;46.42;102151.00;4994961;28;98723;-79
2022/01/29 01:56:38;;;;;;;33.78;4.47;;;;;;;9.25;46.54;102143.03;4993965;28;96827;-80
2022/01/29 01:59:19;;;;;;;;;;;;;;;;;;;;;
2022/01/29 02:01:47;;;;;;;30.80;3.67;;;;;;;9.34;46.33;102131.50;4996745;28;128504;-79
2022/01/29 02:04:18;;;;;;;26.48;4.45;;;;;;;9.33;46.56;102135.03;5005286;28;97976;-79
2022/01/29 02:06:46;;;;;;;24.85;3.33;;;;;;;9.40;46.06;102115.63;5005316;28;96669;-80
2022/01/29 02:09:15;;;;;;;32.90;3.95;;;;;;;9.25;46.56;102110.50;5009879;28;96093;-80
2022/01/29 02:11:52;;;;;;;21.58;3.72;;;;;;;9.03;47.02;102099.25;5009824;28;97895;-81
2022/01/29 02:14:24;;;;;;;26.77;4.10;;;;;;;9.26;46.90;102091.13;5009132;28;98644;-79
2022/01/29 02:16:59;;;;;;;22.85;3.67;;;;;;;9.51;46.42;102093.53;5010386;28;96645;-79
2022/01/29 02:19:43;;;;;;;;;;;;;;;;;;;;;
2022/01/29 02:22:19;;;;;;;26.23;3.42;;;;;;;9.23;47.38;102078.84;5008980;28;127071;-79
2022/01/29 02:25:04;;;;;;;;;;;;;;;;;;;;;
2022/01/29 02:27:32;;;;;;;30.73;3.97;;;;;;;9.21;48.03;102067.44;5018515;28;117182;-79
2022/01/29 02:30:03;;;;;;;23.02;3.92;;;;;;;9.26;48.22;102070.03;5015643;27;96524;-81
2022/01/29 02:32:30;;;;;;;31.45;4.40;;;;;;;9.14;48.57;102063.09;5007881;28;97726;-80
2022/01/29 02:34:57;;;;;;;31.83;4.07;;;;;;;9.33;48.07;102061.16;5003846;28;99664;-80
2022/01/29 02:37:26;;;;;;;27.17;3.95;;;;;;;9.38;47.83;102067.28;5004566;28;96600;-81
2022/01/29 02:39:54;;;;;;;36.20;4.97;;;;;;;9.35;48.29;102067.31;5005561;28;96834;-80
2022/01/29 02:42:21;;;;;;;28.35;3.88;;;;;;;9.36;48.09;102064.66;5000983;28;99832;-79
2022/01/29 02:44:56;;;;;;;31.02;4.97;;;;;;;9.31;48.24;102058.56;5001019;28;99399;-81
2022/01/29 02:47:38;;;;;;;28.40;3.72;;;;;;;9.33;48.43;102054.13;5004517;28;97380;-78
2022/01/29 02:50:11;;;;;;;25.90;4.43;;;;;;;9.12;49.09;102041.16;5000982;28;96849;-80
2022/01/29 02:52:45;;;;;;;24.02;4.40;;;;;;;8.99;49.97;102044.78;5002915;28;100303;-82
2022/01/29 02:55:12;;;;;;;27.40;3.58;;;;;;;9.04;49.71;102024.53;5009753;28;98020;-80
2022/01/29 03:43:24;;;;;;;26.50;5.15;;;;;;;8.86;52.81;101929.81;5306528;22;96815;-80
2022/01/29 03:45:51;;;;;;;30.88;5.03;;;;;;;8.42;54.22;101927.53;4988167;28;98109;-80
2022/01/29 03:48:36;;;;;;;32.05;5.45;;;;;;;8.56;54.27;101920.41;4997062;28;97896;-82
2022/01/29 03:51:02;;;;;;;22.95;4.68;;;;;;;8.64;53.69;101913.31;4995208;28;96690;-79
2022/01/29 04:50:58;;;;;;;;;;;;;;;;;;;;;
2022/01/29 05:00:20;;;;;;;;;;;;;;;;;;;;;
2022/01/29 05:02:53;;;;;;;27.38;6.68;;;;;;;8.73;56.09;101765.63;4976367;28;128803;-80
2022/01/29 05:05:20;;;;;;;23.13;8.20;;;;;;;8.64;56.61;101756.09;4969682;28;96726;-80
2022/01/29 05:07:55;;;;;;;31.90;7.93;;;;;;;9.03;55.96;101754.72;4969035;28;97039;-78
2022/01/29 05:10:37;;;;;;;25.30;7.95;;;;;;;9.15;55.99;101743.13;4967272;28;98862;-79
2022/01/29 05:13:30;;;;;;;25.10;7.55;;;;;;;9.03;55.56;101741.53;4967411;28;100198;-80
2022/01/29 05:31:40;;;;;;;22.50;7.88;;;;;;;8.91;56.78;101690.75;4957489;28;97236;-80
2022/01/29 05:34:09;;;;;;;31.35;8.48;;;;;;;8.51;57.03;101685.13;4973597;28;99720;-80
2022/01/29 05:36:37;;;;;;;25.48;7.72;;;;;;;8.72;57.71;101682.22;4975471;28;99862;-80
2022/01/29 05:39:20;;;;;;;23.08;8.02;;;;;;;8.36;57.40;101676.50;4961507;28;96569;-81
2022/01/29 05:42:25;;;;;;;29.17;8.63;;;;;;;8.64;57.57;101668.28;4957472;28;97062;-80
2022/01/29 05:44:53;;;;;;;24.05;8.00;;;;;;;8.70;57.71;101673.47;4943484;28;98243;-81
2022/01/29 07:45:22;;;;;;;18.92;9.80;;;;;;;8.66;60.71;101439.91;5107036;22;100407;-76
2022/01/29 07:47:48;;;;;;;18.60;10.23;;;;;;;8.93;61.06;101431.50;4890130;28;97891;-75
2022/01/29 07:50:14;;;;;;;22.67;10.20;;;;;;;8.92;60.97;101435.06;4893908;28;96945;-76
2022/01/29 07:52:41;;;;;;;23.02;9.88;;;;;;;8.89;61.00;101431.59;4895016;28;99011;-75
2022/01/29 07:55:08;;;;;;;18.45;9.52;;;;;;;8.73;61.46;101418.69;4890380;28;99477;-73
2022/01/29 07:57:34;;;;;;;19.13;10.73;;;;;;;8.88;61.21;101411.41;4893641;28;98485;-74
2022/01/29 08:00:01;;;;;;;18.15;9.38;;;;;;;8.64;61.45;101412.72;4891780;28;96788;-75
2022/01/29 08:02:28;;;;;;;17.63;9.77;;;;;;;9.08;61.50;101407.50;4893428;28;99224;-74
2022/01/29 08:04:55;;;;;;;19.52;10.02;;;;;;;8.98;61.54;101395.41;4889648;28;99526;-74
2022/01/29 08:07:21;;;;;;;22.05;9.88;;;;;;;8.98;61.06;101397.19;4885899;28;96844;-75
2022/01/29 08:09:47;;;;;;;21.75;10.27;;;;;;;8.89;61.88;101395.56;4889445;28;97000;-75
2022/01/29 08:12:14;;;;;;;19.73;9.63;;;;;;;9.17;60.94;101380.97;4888538;28;99927;-76
2022/01/29 08:14:40;;;;;;;16.88;9.00;;;;;;;8.89;60.82;101381.53;4891381;28;98272;-74
2022/01/29 08:17:07;;;;;;;16.35;9.43;;;;;;;8.90;62.19;101380.63;4888021;28;96854;-75
2022/01/29 08:19:35;;;;;;;15.75;8.90;;;;;;;9.27;60.97;101391.31;4890128;28;98871;-75
2022/01/29 08:22:01;;;;;;;15.40;9.10;;;;;;;9.32;61.35;101368.41;4891445;28;99311;-75
2022/01/29 08:24:28;;;;;;;21.92;9.95;;;;;;;9.57;60.20;101378.41;4889670;28;98815;-74
2022/01/29 08:26:54;;;;;;;16.83;9.05;;;;;;;9.14;61.97;101375.75;4883602;28;97222;-74
2022/01/29 08:29:20;;;;;;;16.02;8.73;;;;;;;9.43;60.91;101367.25;4891138;28;96984;-76
2022/01/29 08:31:47;;;;;;;17.70;9.65;;;;;;;9.55;60.82;101351.16;4885971;28;99262;-73
2022/01/29 08:34:13;;;;;;;17.85;9.43;;;;;;;9.59;60.00;101351.97;4890622;28;103952;-75
2022/01/29 08:36:41;;;;;;;17.63;8.88;;;;;;;9.64;60.28;101347.47;4890902;28;96746;-75
2022/01/29 08:39:08;;;;;;;14.63;8.52;;;;;;;9.62;60.35;101344.00;4891781;28;97694;-75
2022/01/29 08:41:34;;;;;;;14.30;8.85;;;;;;;9.36;59.51;101326.09;4891985;28;99054;-74
2022/01/29 08:44:01;;;;;;;17.52;9.45;;;;;;;9.27;61.95;101328.91;4890455;28;97866;-75
2022/01/29 08:46:27;;;;;;;18.80;9.98;;;;;;;9.24;61.33;101328.13;4890166;28;96788;-76
2022/01/29 08:48:53;;;;;;;15.68;9.35;;;;;;;9.48;61.69;101320.53;4891862;28;97478;-76
2022/01/29 08:51:20;;;;;;;17.65;9.38;;;;;;;9.56;61.23;101315.09;4886918;28;99559;-76
2022/01/29 08:53:48;;;;;;;18.90;9.70;;;;;;;9.46;61.95;101308.28;4885335;28;99213;-75
2022/01/29 08:56:15;;;;;;;17.73;10.50;;;;;;;9.29;63.03;101310.41;4885326;28;96987;-76
2022/01/29 08:58:42;;;;;;;18.67;10.30;;;;;;;9.43;62.50;101311.00;4892395;28;97724;-75
2022/01/29 09:01:10;;;;;;;18.38;10.50;;;;;;;9.48;62.29;101302.06;4886344;28;99615;-75
2022/01/29 09:03:37;;;;;;;15.57;9.55;;;;;;;9.25;64.01;101299.09;4891114;28;98149;-75
2022/01/29 09:06:04;;;;;;;15.13;9.85;;;;;;;9.72;62.49;101292.72;4887904;28;96892;-74
2022/01/29 09:08:31;;;;;;;18.58;9.80;;;;;;;9.46;62.96;101274.84;4886266;28;98741;-74
2022/01/29 09:10:59;;;;;;;18.52;10.43;;;;;;;9.59;62.88;101286.00;4884578;28;98197;-76
2022/01/29 09:13:26;;;;;;;20.50;10.73;;;;;;;9.62;62.61;101277.16;4890737;28;101215;-76
2022/01/29 09:15:52;;;;;;;18.15;10.68;;;;;;;9.47;63.82;101271.31;4892556;28;97371;-75
2022/01/29 09:18:19;;;;;;;20.15;11.32;;;;;;;9.71;63.32;101261.13;4891804;28;98626;-78
2022/01/29 09:20:45;;;;;;;21.27;11.02;;;;;;;9.57;63.27;101264.94;4889814;28;99383;-75
2022/01/29 09:23:11;;;;;;;21.85;12.63;;;;;;;9.70;63.14;101252.34;4888436;28;99595;-75
2022/01/29 09:25:39;;;;;;;19.25;11.57;;;;;;;9.77;62.11;101248.66;4883908;28;98681;-75
2022/01/29 09:28:08;;;;;;;16.48;10.07;;;;;;;9.74;62.84;101238.16;4885403;28;97706;-76
2022/01/29 09:30:35;;;;;;;25.58;12.70;;;;;;;10.02;62.42;101250.66;4889327;28;98317;-76
2022/01/29 09:33:02;;;;;;;17.02;10.93;;;;;;;9.91;62.00;101245.66;4890586;28;98820;-76
2022/01/29 09:35:29;;;;;;;22.17;11.15;;;;;;;9.65;61.69;101246.28;4892662;28;96806;-76
2022/01/29 09:37:56;;;;;;;21.15;11.82;;;;;;;9.68;62.61;101233.03;4888125;28;96859;-77
2022/01/29 09:40:23;;;;;;;21.33;12.27;;;;;;;9.47;64.38;101226.47;4890698;28;98986;-75
2022/01/29 09:42:51;;;;;;;22.63;12.45;;;;;;;9.88;63.23;101214.91;4891029;28;98961;-76
2022/01/29 09:45:21;;;;;;;18.17;11.30;;;;;;;9.76;63.46;101217.88;4893657;28;96946;-77
2022/01/29 09:47:49;;;;;;;19.58;12.55;;;;;;;9.75;64.01;101202.94;4892684;28;97866;-76
2022/01/29 09:50:18;;;;;;;23.17;13.00;;;;;;;9.94;63.21;101185.72;4894449;28;99174;-76
2022/01/29 09:52:48;;;;;;;22.45;12.82;;;;;;;9.84;63.17;101207.13;4889450;28;97951;-76
2022/01/29 09:55:14;;;;;;;21.23;13.02;;;;;;;10.10;63.39;101191.50;4895113;28;97063;-77
2022/01/29 09:57:41;;;;;;;28.17;14.77;;;;;;;9.76;64.04;101191.47;4890998;28;97102;-76
2022/01/29 10:00:10;;;;;;;23.27;14.25;;;;;;;10.13;63.44;101174.69;4890154;28;99241;-75
2022/01/29 10:02:39;;;;;;;26.20;14.68;;;;;;;10.20;63.37;101161.31;4890544;28;99266;-78
2022/01/29 10:05:07;;;;;;;27.25;14.38;;;;;;;10.26;62.67;101154.97;4892582;28;97164;-78
2022/01/29 10:07:34;;;;;;;27.35;16.00;;;;;;;10.05;63.48;101166.94;4889062;28;97066;-77
2022/01/29 10:10:03;;;;;;;25.90;15.13;;;;;;;10.16;63.88;101162.28;4893269;28;98065;-80
2022/01/29 10:12:32;;;;;;;31.70;15.43;;;;;;;10.23;63.42;101168.28;4896659;28;100183;-77
2022/01/29 10:15:00;;;;;;;23.35;15.55;;;;;;;9.95;64.79;101168.13;4887961;28;97640;-77
2022/01/29 10:17:49;;;;;;;29.42;15.50;;;;;;;9.92;64.78;101157.63;4891248;28;96788;-76
2022/01/29 10:20:19;;;;;;;25.40;15.13;;;;;;;10.10;64.68;101162.44;4894788;28;99984;-77
2022/01/29 10:22:49;;;;;;;25.73;15.05;;;;;;;10.20;64.72;101163.06;4886856;28;98823;-77
2022/01/29 10:25:18;;;;;;;27.30;16.25;;;;;;;9.93;64.82;101152.31;4888104;28;97197;-76
2022/01/29 10:28:07;;;;;;;29.48;15.48;;;;;;;10.44;64.45;101150.94;4886987;28;98850;-78
2022/01/29 10:30:36;;;;;;;29.45;16.40;;;;;;;10.29;64.78;101139.94;4892039;28;98984;-76
2022/01/29 10:33:19;;;;;;;28.40;16.02;;;;;;;10.30;64.24;101131.09;4896330;28;100505;-79
2022/01/29 10:35:51;;;;;;;26.15;16.95;;;;;;;10.08;65.46;101129.06;4886433;28;97697;-81
2022/01/29 10:38:20;;;;;;;27.02;16.70;;;;;;;10.20;65.65;101123.47;4890504;28;97091;-80
2022/01/29 10:40:47;;;;;;;25.50;16.40;;;;;;;10.19;64.09;101121.72;4890912;28;101463;-79
2022/01/29 10:43:14;;;;;;;27.73;15.43;;;;;;;10.33;65.81;101120.44;4888002;28;99029;-79
2022/01/29 10:45:41;;;;;;;28.63;16.92;;;;;;;10.60;65.28;101126.69;4885845;28;97096;-77
2022/01/29 10:48:08;;;;;;;28.42;16.80;;;;;;;10.38;65.31;101122.94;4889032;28;97415;-77
2022/01/29 10:50:35;;;;;;;25.95;16.52;;;;;;;10.47;65.05;101121.81;4882068;28;98951;-77
2022/01/29 10:53:24;;;;;;;26.27;16.27;;;;;;;10.84;63.70;101111.00;4886119;28;98965;-77
2022/01/29 10:56:03;;;;;;;25.70;15.48;;;;;;;10.92;63.36;101111.63;4886199;28;97265;-77
2022/01/29 10:58:33;;;;;;;22.20;14.55;;;;;;;10.67;64.82;101111.53;4897609;28;97161;-84
2022/01/29 11:01:23;;;;;;;26.45;15.32;;;;;;;10.83;64.83;101111.94;4911542;28;100036;-86
2022/01/29 11:03:54;;;;;;;23.13;14.82;;;;;;;10.19;66.61;101106.75;4914966;28;99368;-83
2022/01/29 11:12:21;;;;;;;25.85;15.90;;;;;;;10.04;66.80;101087.81;4823628;29;98630;-80
2022/01/29 11:14:52;;;;;;;23.05;13.13;;;;;;;10.32;66.53;101086.13;4888092;28;99434;-79
2022/01/29 11:17:29;;;;;;;24.30;13.45;;;;;;;10.73;65.18;101079.63;4894046;28;96796;-81
2022/01/29 11:19:57;;;;;;;23.15;13.23;;;;;;;11.01;64.35;101071.69;4889768;28;96911;-78
2022/01/29 11:22:38;;;;;;;21.92;13.48;;;;;;;11.04;64.60;101071.56;4907837;28;100171;-80
2022/01/29 11:25:14;;;;;;;28.60;14.23;;;;;;;11.36;63.46;101063.44;4908240;28;100125;-80
2022/01/29 11:27:43;;;;;;;15.97;11.63;;;;;;;10.99;62.88;101079.66;4910327;28;97329;-81
2022/01/29 11:30:14;;;;;;;17.80;11.80;;;;;;;11.29;63.86;101066.38;4914323;28;96827;-79
2022/01/29 11:32:43;;;;;;;18.27;11.65;;;;;;;10.87;64.24;101064.19;4909088;28;98008;-80
2022/01/29 11:35:19;;;;;;;23.70;11.95;;;;;;;11.22;63.79;101039.25;4908917;28;98067;-81
2022/01/29 11:37:58;;;;;;;19.08;11.77;;;;;;;11.33;63.38;101034.47;4911390;28;97023;-81
2022/01/29 11:40:29;;;;;;;18.73;11.18;;;;;;;10.87;64.98;101031.59;4902818;28;96761;-81
2022/01/29 11:42:59;;;;;;;19.73;10.60;;;;;;;11.15;64.63;101016.56;4907238;28;100020;-81
2022/01/29 11:45:55;;;;;;;18.40;11.98;;;;;;;11.19;63.99;101000.53;4912089;28;99867;-83
2022/01/29 11:48:54;;;;;;;15.45;10.40;;;;;;;10.77;65.92;100984.31;4911039;28;96671;-82
2022/01/29 11:51:54;;;;;;;17.20;10.27;;;;;;;10.68;66.66;100967.91;4918706;28;96514;-82
2022/01/29 11:54:29;;;;;;;16.17;11.45;;;;;;;11.19;65.21;100962.63;4911528;28;99545;-82
2022/01/29 11:57:22;;;;;;;17.10;10.75;;;;;;;11.27;64.14;100963.25;4905718;28;99646;-82
2022/01/29 11:59:54;;;;;;;14.77;10.10;;;;;;;10.89;64.96;100951.34;4917051;28;98807;-82
2022/01/29 12:02:43;;;;;;;16.02;10.02;;;;;;;10.47;66.16;100952.72;4910337;28;96832;-80
2022/01/29 12:05:11;;;;;;;17.58;9.95;;;;;;;10.99;65.85;100947.47;4903832;28;101122;-79
2022/01/29 12:08:13;;;;;;;13.68;10.13;;;;;;;11.09;65.56;100940.09;4897529;28;101025;-77
2022/01/29 12:10:52;;;;;;;16.38;9.68;;;;;;;11.15;64.88;100932.81;4893562;28;96881;-76
2022/01/29 12:13:19;;;;;;;14.95;9.60;;;;;;;11.35;64.81;100924.16;4896277;28;96967;-77
2022/01/29 12:15:45;;;;;;;15.93;9.68;;;;;;;11.36;64.27;100920.56;4897241;28;99205;-76
2022/01/29 12:18:29;;;;;;;14.85;9.02;;;;;;;11.46;63.74;100911.41;4894406;28;99433;-76
2022/01/29 12:21:10;;;;;;;12.60;9.77;;;;;;;11.06;63.67;100897.88;4900116;28;97675;-80
2022/01/29 12:23:51;;;;;;;17.75;9.55;;;;;;;10.75;66.59;100906.88;4901459;28;96752;-82
2022/01/29 12:26:32;;;;;;;;;;;;;;;;;;;;;
2022/01/29 12:29:00;;;;;;;12.80;8.05;;;;;;;11.26;65.32;100887.44;4914508;28;125177;-82
2022/01/29 12:31:57;;;;;;;14.93;8.60;;;;;;;11.33;64.70;100891.59;4914198;28;97767;-81
2022/01/29 12:34:42;;;;;;;14.05;8.18;;;;;;;11.65;63.31;100878.97;4907243;28;96505;-82
2022/01/29 12:37:20;;;;;;;10.57;7.95;;;;;;;11.74;63.30;100874.22;4897690;28;99113;-82
2022/01/29 12:40:18;;;;;;;11.40;8.10;;;;;;;11.70;62.48;100874.34;4894684;28;98303;-82
2022/01/29 12:43:11;;;;;;;11.65;7.70;;;;;;;11.49;63.65;100871.59;4894976;28;98326;-81
2022/01/29 12:45:41;;;;;;;12.88;7.45;;;;;;;11.88;62.66;100866.59;4891402;28;96287;-81
2022/01/29 12:48:09;;;;;;;13.05;7.97;;;;;;;12.00;62.25;100845.88;4881622;28;97346;-80
2022/01/29 12:50:36;;;;;;;11.48;8.00;;;;;;;11.81;62.29;100835.13;4881920;28;98224;-78
2022/01/29 12:53:10;;;;;;;12.30;7.68;;;;;;;11.77;62.30;100837.03;4882547;28;97282;-80
2022/01/29 12:56:03;;;;;;;11.25;7.78;;;;;;;11.70;62.70;100834.63;4884056;28;97841;-83
2022/01/29 12:58:39;;;;;;;11.52;7.32;;;;;;;11.42;63.22;100808.38;4886122;28;99581;-83
2022/01/29 13:01:34;;;;;;;10.50;7.03;;;;;;;10.90;64.62;100820.00;4877040;28;100543;-83
2022/01/29 13:04:18;;;;;;;;;;;;;;;;;;;;;
2022/01/29 13:07:04;;;;;;;10.15;6.68;;;;;;;11.71;63.08;100817.84;4889772;28;115905;-81
2022/01/29 13:09:35;;;;;;;10.40;6.50;;;;;;;11.71;62.35;100810.75;4883017;28;102319;-81
2022/01/29 13:12:12;;;;;;;11.45;6.63;;;;;;;11.76;62.52;100810.59;4889362;28;96800;-79
2022/01/29 13:15:25;;;;;;;9.82;6.35;;;;;;;11.97;61.46;100797.38;4895386;28;96968;-81
2022/01/29 13:17:57;;;;;;;11.10;6.43;;;;;;;12.03;61.51;100796.28;4890502;28;96813;-81
2022/01/29 13:20:30;;;;;;;9.27;5.50;;;;;;;12.03;61.33;100798.91;4883331;28;99703;-80
2022/01/29 13:22:57;;;;;;;8.02;5.22;;;;;;;12.06;60.10;100774.09;4875501;28;99639;-80
2022/01/29 13:25:29;;;;;;;8.75;5.68;;;;;;;12.04;60.96;100791.84;4872942;28;97341;-80
2022/01/29 13:28:06;;;;;;;8.70;5.05;;;;;;;11.92;61.03;100790.56;4872865;28;97460;-80
2022/01/29 13:30:32;;;;;;;8.50;5.15;;;;;;;12.04;60.71;100790.06;4873631;28;98648;-80
2022/01/29 13:33:15;;;;;;;8.00;5.05;;;;;;;12.29;60.45;100817.25;4870920;28;98850;-80
2022/01/29 13:35:47;;;;;;;6.97;4.70;;;;;;;12.19;59.61;100797.38;4871244;28;97302;-81
2022/01/29 13:38:21;;;;;;;5.90;4.65;;;;;;;12.12;59.96;100811.81;4867690;28;96855;-80
2022/01/29 13:40:50;;;;;;;5.80;4.40;;;;;;;11.42;62.93;100809.22;4873637;28;100738;-81
2022/01/29 13:43:27;;;;;;;6.35;4.70;;;;;;;11.79;61.65;100798.13;4869518;28;97838;-81
2022/01/29 13:45:56;;;;;;;6.13;4.40;;;;;;;12.07;60.57;100792.59;4920814;23;98137;-80
2022/01/29 13:48:25;;;;;;;6.40;4.25;;;;;;;11.82;60.92;100776.81;4914403;28;97212;-81
2022/01/29 13:50:56;;;;;;;7.28;4.20;;;;;;;12.29;59.81;100772.22;4915733;28;99215;-80
2022/01/29 13:53:24;;;;;;;5.63;4.10;;;;;;;12.05;60.14;100765.28;4912098;28;98890;-80
2022/01/29 13:56:00;;;;;;;4.65;3.67;;;;;;;12.15;59.81;100769.28;4911642;28;97130;-80
2022/01/29 13:58:28;;;;;;;3.97;3.42;;;;;;;12.45;59.80;100771.56;4915753;28;97110;-79
2022/01/29 14:00:57;;;;;;;3.78;2.90;;;;;;;12.02;60.15;100760.13;4908081;28;100933;-80
2022/01/29 14:03:49;;;;;;;3.33;2.67;;;;;;;12.19;60.04;100759.44;4912090;28;99823;-81
2022/01/29 14:06:25;;;;;;;3.45;2.45;;;;;;;11.59;61.53;100735.34;4912296;28;97867;-78
2022/01/29 14:09:22;;;;;;;3.20;2.53;;;;;;;12.07;60.38;100736.09;4912964;28;97828;-80
2022/01/29 14:12:19;;;;;;;3.45;2.45;;;;;;;11.47;62.54;100727.03;4917174;28;98186;-80
2022/01/29 14:14:53;;;;;;;3.97;2.43;;;;;;;12.04;61.90;100729.13;4914055;28;98919;-78
2022/01/29 14:17:30;;;;;;;2.35;2.13;;;;;;;12.04;61.76;100728.28;4919813;28;98366;-80
2022/01/29 14:20:00;;;;;;;2.47;2.10;;;;;;;12.52;59.77;100720.03;4916747;28;97409;-80
2022/01/29 14:22:28;;;;;;;3.28;2.15;;;;;;;11.88;61.54;100697.13;4918338;28;98324;-80
2022/01/29 14:24:55;;;;;;;4.18;1.77;;;;;;;12.53;60.08;100689.94;4915580;28;99065;-81
2022/01/29 14:27:22;;;;;;;2.08;1.85;;;;;;;12.37;61.06;100687.97;4917485;28;97181;-80
2022/01/29 14:29:51;;;;;;;2.13;1.92;;;;;;;12.15;61.92;100681.00;4914282;28;96993;-79
2022/01/29 14:32:18;;;;;;;4.95;2.65;;;;;;;12.21;60.58;100684.25;4912838;28;99283;-79
2022/01/29 14:34:45;;;;;;;2.30;1.45;;;;;;;11.93;62.74;100678.41;4914047;28;99989;-80
2022/01/29 14:37:13;;;;;;;4.45;1.85;;;;;;;11.94;62.91;100681.00;4914821;28;96806;-80
2022/01/29 14:39:40;;;;;;;3.22;1.98;;;;;;;12.21;61.86;100671.00;4920392;28;97889;-79
2022/01/29 14:42:09;;;;;;;3.13;1.70;;;;;;;12.11;62.17;100656.44;4924260;28;98940;-80
2022/01/29 14:44:38;;;;;;;4.75;1.90;;;;;;;12.29;62.64;100662.72;4921533;28;100886;-78
2022/01/29 14:47:06;;;;;;;2.33;2.13;;;;;;;12.35;62.06;100651.84;4937798;28;96928;-78
2022/01/29 14:49:33;;;;;;;1.80;1.70;;;;;;;12.31;63.07;100640.53;4946944;28;96839;-78
2022/01/29 14:52:03;;;;;;;7.32;2.17;;;;;;;12.24;62.71;100631.13;4940122;28;98741;-78
2022/01/29 14:54:31;;;;;;;1.90;1.60;;;;;;;11.85;63.63;100649.63;4941138;28;97640;-79
2022/01/29 14:56:58;;;;;;;2.50;2.17;;;;;;;12.07;64.24;100636.34;4919851;28;97038;-79
2022/01/29 14:59:25;;;;;;;2.28;2.00;;;;;;;12.00;64.68;100631.34;4916872;28;97140;-79
2022/01/29 15:01:52;;;;;;;3.40;2.03;;;;;;;12.20;64.67;100628.72;4915576;28;99015;-80
2022/01/29 15:08:10;;;;;;;3.85;2.22;;;;;;;12.69;61.88;100598.19;4851751;28;96922;-82
2022/01/29 15:10:38;;;;;;;3.60;1.75;;;;;;;12.49;62.78;100592.94;4840874;28;97520;-79
2022/01/29 15:13:10;;;;;;;2.60;1.80;;;;;;;12.48;62.51;100596.50;4919656;28;98941;-82
2022/01/29 15:46:33;;;;;;;3.28;2.50;;;;;;;12.40;61.18;100508.59;5063609;23;98509;-78
2022/01/29 15:49:00;;;;;;;4.95;2.75;;;;;;;12.61;60.81;100486.34;4950344;28;99839;-77
2022/01/29 15:51:26;;;;;;;4.63;2.90;;;;;;;12.20;61.51;100494.47;4954478;28;97281;-77
2022/01/29 15:53:53;;;;;;;3.67;2.90;;;;;;;12.56;60.87;100489.22;4960273;28;96412;-80
2022/01/29 15:56:19;;;;;;;5.80;2.67;;;;;;;12.72;60.61;100490.22;4958019;28;97609;-79
2022/01/29 15:58:46;;;;;;;3.08;2.50;;;;;;;12.72;59.81;100484.06;4948477;28;97004;-80
2022/01/29 16:01:14;;;;;;;3.08;2.63;;;;;;;12.63;60.52;100485.34;4949549;28;95998;-85
2022/01/29 16:03:42;;;;;;;3.10;2.50;;;;;;;12.61;60.57;100470.44;4957375;28;96692;-81
2022/01/29 16:06:08;;;;;;;5.43;2.45;;;;;;;12.87;59.20;100477.97;4955142;28;97471;-80
2022/01/29 16:08:34;;;;;;;2.70;2.40;;;;;;;12.99;59.11;100471.25;4954057;28;98130;-80
2022/01/29 16:11:01;;;;;;;5.03;3.08;;;;;;;12.73;60.06;100472.53;4934101;28;96904;-80
2022/01/29 16:13:28;;;;;;;4.63;2.50;;;;;;;12.62;60.14;100456.25;4934181;28;96944;-81
2022/01/29 16:15:55;;;;;;;3.33;2.50;;;;;;;12.51;60.59;100474.47;4934539;28;99489;-80
2022/01/29 16:18:38;;;;;;;3.33;2.90;;;;;;;12.54;60.48;100443.38;4940718;28;98998;-79
2022/01/29 16:21:06;;;;;;;4.88;2.92;;;;;;;12.72;60.39;100446.94;4934965;28;97711;-80
2022/01/29 16:23:37;;;;;;;5.50;3.00;;;;;;;12.30;61.22;100445.41;4933081;28;97319;-80
2022/01/29 16:26:04;;;;;;;5.78;3.45;;;;;;;12.29;61.53;100456.94;4929758;28;99508;-79
2022/01/29 16:28:30;;;;;;;5.18;3.28;;;;;;;12.33;62.61;100449.72;4928905;28;101213;-80
2022/01/29 16:30:57;;;;;;;5.95;3.63;;;;;;;12.56;62.75;100454.75;4930608;28;96960;-84
2022/01/29 16:33:25;;;;;;;6.28;3.47;;;;;;;12.25;63.75;100450.06;4935411;28;97259;-85